Time;durP1;ratioP1;P1;durP2;ratioP2;P2;SDS_P1;SDS_P2;PMS_P1;PMS_P2;Temp;Humidity;BMP_temperature;BMP_pressure;BME280_temperature;BME280_humidity;BME280_pressure;Samples;Min_cycle;Max_cycle;Signal;HPM_P1;HPM_P2
2021/04/11 00:02:25;;;;;;;11.73;4.75;;;23.20;55.10;;;;;;5094673;28;20028;-51
2021/04/11 00:04:52;;;;;;;9.55;3.85;;;23.20;55.10;;;;;;5094545;28;20043;-51
2021/04/11 00:07:18;;;;;;;7.93;4.00;;;23.20;55.10;;;;;;5094714;28;20469;-51
2021/04/11 00:09:44;;;;;;;10.93;4.32;;;23.20;55.10;;;;;;5094316;28;20078;-51
2021/04/11 00:12:10;;;;;;;9.95;3.97;;;23.20;55.10;;;;;;5076409;28;20028;-51
2021/04/11 00:14:37;;;;;;;10.68;3.97;;;23.20;55.10;;;;;;5094212;28;20074;-51
2021/04/11 00:17:03;;;;;;;10.32;4.00;;;23.20;55.20;;;;;;5094528;28;20028;-51
2021/04/11 00:19:29;;;;;;;12.80;4.43;;;23.20;55.10;;;;;;5094290;28;20363;-51
2021/04/11 00:21:55;;;;;;;9.00;3.88;;;23.10;55.10;;;;;;5094400;28;20046;-51
2021/04/11 00:24:21;;;;;;;9.60;3.63;;;23.20;55.10;;;;;;5093958;28;20047;-51
2021/04/11 00:26:47;;;;;;;8.15;4.00;;;23.20;55.10;;;;;;5093897;28;20032;-51
2021/04/11 00:29:13;;;;;;;9.82;3.70;;;23.20;55.10;;;;;;5094140;28;20047;-51
2021/04/11 00:31:39;;;;;;;9.80;4.07;;;23.20;55.20;;;;;;5093099;28;20059;-51
2021/04/11 00:34:05;;;;;;;11.35;4.18;;;23.10;55.10;;;;;;5094419;28;20501;-51
2021/04/11 00:36:31;;;;;;;11.07;4.18;;;23.20;55.20;;;;;;5093521;28;20028;-51
2021/04/11 00:38:57;;;;;;;9.35;3.97;;;23.10;55.10;;;;;;5094273;28;20051;-51
2021/04/11 00:41:38;;;;;;;11.18;4.55;;;23.20;55.20;;;;;;5094134;28;20031;-51
2021/04/11 00:44:05;;;;;;;11.20;4.30;;;23.10;55.10;;;;;;5094151;28;20450;-51
2021/04/11 00:46:53;;;;;;;12.77;4.50;;;23.10;55.00;;;;;;5093866;28;20469;-51
2021/04/11 00:49:26;;;;;;;10.55;4.20;;;23.10;55.10;;;;;;5093654;28;20052;-51
2021/04/11 00:51:53;;;;;;;10.63;4.60;;;23.10;55.10;;;;;;5075394;28;20296;-51
2021/04/11 00:54:20;;;;;;;8.85;4.18;;;23.20;55.10;;;;;;5075712;28;20035;-51
2021/04/11 00:56:47;;;;;;;7.85;4.55;;;23.10;55.10;;;;;;5091632;28;20036;-51
2021/04/11 00:59:15;;;;;;;9.48;3.85;;;23.10;55.00;;;;;;5075653;28;20075;-51
2021/04/11 01:01:42;;;;;;;9.05;4.25;;;23.20;55.10;;;;;;5093479;28;20112;-51
2021/04/11 01:04:13;;;;;;;8.73;3.60;;;23.20;55.10;;;;;;5074370;28;20519;-51
2021/04/11 01:07:01;;;;;;;9.68;4.00;;;23.10;55.00;;;;;;5074939;28;20024;-51
2021/04/11 01:09:29;;;;;;;9.38;4.60;;;23.10;55.00;;;;;;5093036;28;20055;-51
2021/04/11 01:11:59;;;;;;;10.32;4.35;;;23.20;55.10;;;;;;5093294;28;20052;-50
2021/04/11 01:14:28;;;;;;;13.20;4.28;;;23.10;55.00;;;;;;5093374;28;20500;-50
2021/04/11 01:16:54;;;;;;;8.88;3.80;;;23.20;55.10;;;;;;5074928;28;20028;-50
2021/04/11 01:19:28;;;;;;;12.05;4.32;;;23.20;55.10;;;;;;5093078;28;20078;-50
2021/04/11 01:22:04;;;;;;;12.15;4.13;;;23.10;55.00;;;;;;5092969;28;20085;-50
2021/04/11 01:24:37;;;;;;;9.25;3.60;;;23.10;54.90;;;;;;5074605;28;20024;-50
2021/04/11 01:27:07;;;;;;;8.32;4.13;;;23.10;54.90;;;;;;5075010;28;20089;-51
2021/04/11 01:29:34;;;;;;;8.80;3.58;;;23.10;54.90;;;;;;5074704;28;20048;-51
2021/04/11 01:32:01;;;;;;;12.68;4.38;;;23.10;54.90;;;;;;5074524;28;20397;-51
2021/04/11 01:34:28;;;;;;;9.82;4.20;;;23.10;54.90;;;;;;5093494;28;20217;-51
2021/04/11 01:36:58;;;;;;;7.55;4.18;;;23.10;54.90;;;;;;5074612;28;20039;-50
2021/04/11 01:39:30;;;;;;;5.20;3.58;;;23.10;54.90;;;;;;5074847;28;20119;-50
2021/04/11 01:41:59;;;;;;;8.70;4.20;;;23.10;54.90;;;;;;5091485;28;20024;-51
2021/04/11 01:44:29;;;;;;;7.75;3.67;;;23.10;54.90;;;;;;5085973;28;20040;-54
2021/04/11 01:46:56;;;;;;;8.53;3.77;;;23.10;54.90;;;;;;5091513;28;20054;-54
2021/04/11 01:49:26;;;;;;;8.00;3.67;;;23.10;54.90;;;;;;5073785;28;20020;-55
2021/04/11 01:52:00;;;;;;;6.85;3.60;;;23.10;54.90;;;;;;5074255;28;20028;-55
2021/04/11 01:54:31;;;;;;;8.30;3.90;;;23.10;54.80;;;;;;5072559;28;20531;-54
2021/04/11 01:57:15;;;;;;;8.57;4.45;;;23.10;54.90;;;;;;5054321;28;20418;-54
2021/04/11 01:59:42;;;;;;;10.10;4.30;;;23.10;54.90;;;;;;5054071;28;20486;-55
2021/04/11 02:02:13;;;;;;;6.50;3.70;;;23.10;54.80;;;;;;5053913;28;20358;-55
2021/04/11 02:04:39;;;;;;;8.65;4.05;;;23.10;54.80;;;;;;5074356;28;20036;-54
2021/04/11 02:07:08;;;;;;;7.45;4.03;;;23.10;54.80;;;;;;5091718;28;20069;-50
2021/04/11 02:09:42;;;;;;;9.82;4.00;;;23.10;54.80;;;;;;5069103;28;20115;-54
2021/04/11 02:12:35;;;;;;;9.50;3.45;;;23.10;54.80;;;;;;5083517;28;20028;-55
2021/04/11 02:15:19;;;;;;;10.32;3.75;;;23.10;54.80;;;;;;5069033;28;20028;-55
2021/04/11 02:17:46;;;;;;;5.95;3.92;;;23.10;54.90;;;;;;5091749;28;20354;-54
2021/04/11 02:20:13;;;;;;;7.07;3.63;;;23.10;54.90;;;;;;5090908;28;20020;-55
2021/04/11 02:22:44;;;;;;;6.97;3.65;;;23.10;54.90;;;;;;5072278;28;20029;-51
2021/04/11 02:25:20;;;;;;;9.45;4.22;;;23.10;54.90;;;;;;5073431;28;20412;-54
2021/04/11 02:27:59;;;;;;;8.60;4.18;;;23.10;54.90;;;;;;5089783;28;20040;-55
2021/04/11 02:30:29;;;;;;;5.63;3.38;;;23.10;54.80;;;;;;5073128;28;20110;-54
2021/04/11 02:32:57;;;;;;;5.47;3.45;;;23.10;54.80;;;;;;5073262;28;20030;-54
2021/04/11 02:35:27;;;;;;;6.30;3.47;;;23.10;54.80;;;;;;5073744;28;20016;-55
2021/04/11 02:37:55;;;;;;;;;;;23.00;54.80;;;;;;5071587;28;20031;-55
2021/04/11 02:40:28;;;;;;;11.80;4.20;;;23.10;55.00;;;;;;5091733;28;20277;-55
2021/04/11 02:43:00;;;;;;;9.35;4.75;;;23.10;54.70;;;;;;5088848;28;20028;-55
2021/04/11 02:45:33;;;;;;;8.13;4.63;;;23.10;54.70;;;;;;5071505;28;20090;-55
2021/04/11 02:48:03;;;;;;;11.55;4.57;;;23.00;54.70;;;;;;5088836;28;20034;-54
2021/04/11 02:50:40;;;;;;;7.72;3.95;;;23.00;54.80;;;;;;5073341;28;20138;-54
2021/04/11 02:53:27;;;;;;;6.70;3.97;;;23.00;54.80;;;;;;5055983;28;20060;-54
2021/04/11 02:56:00;;;;;;;9.48;4.32;;;23.00;54.90;;;;;;5075836;28;20020;-54
2021/04/11 02:58:27;;;;;;;7.43;4.45;;;23.00;54.80;;;;;;5073956;28;20020;-54
2021/04/11 03:01:10;;;;;;;10.02;4.25;;;23.00;54.80;;;;;;5095601;28;20028;-54
2021/04/11 03:03:38;;;;;;;9.45;4.22;;;23.00;54.90;;;;;;5077210;28;20106;-54
2021/04/11 03:06:12;;;;;;;12.60;5.60;;;23.00;54.90;;;;;;5077118;28;20067;-54
2021/04/11 03:08:41;;;;;;;11.77;5.22;;;23.00;54.90;;;;;;5077097;28;20059;-54
2021/04/11 03:11:21;;;;;;;12.02;5.03;;;23.00;54.90;;;;;;5066243;28;20033;-54
2021/04/11 03:13:50;;;;;;;9.85;4.90;;;22.90;54.90;;;;;;5063391;28;20473;-54
2021/04/11 03:16:16;;;;;;;10.00;6.40;;;22.90;54.90;;;;;;5077457;28;20115;-54
2021/04/11 03:18:43;;;;;;;12.80;6.35;;;22.90;54.80;;;;;;5095431;28;20032;-55
2021/04/11 03:21:11;;;;;;;9.57;5.75;;;22.90;54.80;;;;;;5077364;28;20089;-54
2021/04/11 03:23:38;;;;;;;13.45;6.10;;;22.90;54.80;;;;;;5076653;28;20050;-55
2021/04/11 03:26:22;;;;;;;11.10;5.30;;;22.90;54.90;;;;;;5095329;28;20086;-54
2021/04/11 03:29:03;;;;;;;12.68;5.95;;;22.90;54.90;;;;;;5094602;28;20051;-55
2021/04/11 03:31:36;;;;;;;12.20;6.38;;;22.90;54.90;;;;;;5077082;28;20420;-54
2021/04/11 03:34:05;;;;;;;11.93;5.85;;;22.90;54.90;;;;;;5076906;28;20107;-54
2021/04/11 03:36:35;;;;;;;11.90;5.78;;;22.80;54.80;;;;;;5069929;28;20132;-55
2021/04/11 03:39:05;;;;;;;12.63;6.85;;;22.90;54.80;;;;;;5080348;28;20103;-54
2021/04/11 03:41:35;;;;;;;10.48;5.60;;;22.80;54.80;;;;;;5094671;28;20090;-55
2021/04/11 03:44:18;;;;;;;9.20;5.95;;;22.80;54.80;;;;;;5076425;28;20111;-55
2021/04/11 03:47:09;;;;;;;11.43;6.32;;;22.80;54.80;;;;;;5076532;28;20072;-55
2021/04/11 03:49:59;;;;;;;8.07;5.40;;;22.80;54.80;;;;;;5076526;28;20032;-54
2021/04/11 03:52:42;;;;;;;13.90;6.32;;;22.80;54.70;;;;;;5076775;28;20024;-54
2021/04/11 03:55:13;;;;;;;12.32;6.00;;;22.80;54.70;;;;;;5076576;28;20397;-54
2021/04/11 03:57:49;;;;;;;9.60;6.45;;;22.80;54.70;;;;;;5094507;28;20032;-55
2021/04/11 04:00:21;;;;;;;12.43;5.70;;;22.80;54.70;;;;;;5076319;28;20478;-55
2021/04/11 04:02:56;;;;;;;12.85;6.32;;;22.80;54.70;;;;;;5076600;28;20032;-55
2021/04/11 04:05:30;;;;;;;16.20;6.68;;;22.80;54.70;;;;;;5076244;28;20662;-55
2021/04/11 04:08:03;;;;;;;14.65;6.70;;;22.80;55.20;;;;;;5093618;28;20500;-55
2021/04/11 04:10:59;;;;;;;13.15;5.95;;;22.80;54.60;;;;;;5094317;28;20160;-55
2021/04/11 04:14:06;;;;;;;10.35;5.47;;;22.70;54.70;;;;;;5073072;28;20093;-55
2021/04/11 04:16:45;;;;;;;14.80;6.57;;;22.70;54.60;;;;;;5042387;28;20075;-55
2021/04/11 04:19:45;;;;;;;15.95;6.35;;;22.70;54.50;;;;;;5057890;28;20124;-55
2021/04/11 04:23:10;;;;;;;13.95;6.78;;;22.70;54.60;;;;;;5076294;28;20089;-55
2021/04/11 04:25:55;;;;;;;12.30;6.50;;;22.70;54.60;;;;;;5045019;28;20443;-55
2021/04/11 04:28:47;;;;;;;9.47;6.30;;;22.70;54.50;;;;;;5035180;28;20049;-55
2021/04/11 04:31:46;;;;;;;11.77;6.88;;;22.70;54.50;;;;;;5034973;28;20278;-55
2021/04/11 04:34:15;;;;;;;12.63;6.63;;;22.70;54.50;;;;;;5001589;28;20542;-55
2021/04/11 04:37:12;;;;;;;14.20;7.03;;;22.60;54.40;;;;;;5034965;28;20033;-55
2021/04/11 04:39:51;;;;;;;14.80;7.22;;;22.60;54.50;;;;;;5022566;28;20038;-55
2021/04/11 04:42:56;;;;;;;12.40;7.95;;;22.70;54.50;;;;;;5015213;28;20053;-55
2021/04/11 04:45:28;;;;;;;15.30;7.45;;;22.60;54.50;;;;;;5014797;28;20037;-55
2021/04/11 04:48:04;;;;;;;18.13;6.85;;;22.60;54.40;;;;;;5031556;28;20357;-55
2021/04/11 04:50:49;;;;;;;11.10;6.82;;;22.60;54.50;;;;;;5024637;28;20128;-55
2021/04/11 04:53:38;;;;;;;10.80;6.78;;;22.60;54.40;;;;;;5034758;28;20033;-54
2021/04/11 04:56:21;;;;;;;12.38;7.28;;;22.60;54.40;;;;;;5046508;28;20036;-55
2021/04/11 04:59:04;;;;;;;13.27;7.03;;;22.60;54.40;;;;;;5055391;28;20028;-55
2021/04/11 05:01:36;;;;;;;10.30;6.78;;;22.60;54.40;;;;;;5072225;28;20054;-55
2021/04/11 05:04:26;;;;;;;15.68;7.72;;;22.60;54.30;;;;;;5075615;28;20431;-55
2021/04/11 05:07:11;;;;;;;10.60;7.13;;;22.60;54.30;;;;;;5075175;28;20169;-55
2021/04/11 05:09:48;;;;;;;10.05;6.30;;;22.50;54.30;;;;;;5074740;28;20031;-55
2021/04/11 05:12:37;;;;;;;14.23;7.28;;;22.60;54.30;;;;;;5075328;28;20051;-55
2021/04/11 05:15:11;;;;;;;15.10;6.75;;;22.60;54.30;;;;;;5058266;28;20047;-55
2021/04/11 05:17:44;;;;;;;13.88;7.82;;;22.60;54.30;;;;;;5074845;28;20024;-55
2021/04/11 05:20:23;;;;;;;11.00;6.38;;;22.60;54.30;;;;;;5074597;28;20512;-54
2021/04/11 05:23:09;;;;;;;15.27;7.30;;;22.50;54.30;;;;;;5093083;28;20051;-55
2021/04/11 05:25:50;;;;;;;13.60;6.82;;;22.50;54.30;;;;;;5092785;28;20028;-55
2021/04/11 05:28:28;;;;;;;14.40;6.57;;;22.60;54.40;;;;;;5074591;28;20044;-55
2021/04/11 05:31:04;;;;;;;10.90;6.40;;;22.50;54.30;;;;;;5074093;28;20414;-55
2021/04/11 05:33:33;;;;;;;9.88;6.03;;;22.50;54.30;;;;;;5092875;28;20024;-56
2021/04/11 05:36:19;;;;;;;13.20;6.88;;;22.60;54.40;;;;;;5092506;28;20094;-54
2021/04/11 05:39:17;;;;;;;10.48;6.05;;;22.50;54.30;;;;;;5092434;28;20032;-55
2021/04/11 05:41:55;;;;;;;14.18;6.53;;;22.50;54.30;;;;;;5080818;28;20747;-56
2021/04/11 05:44:35;;;;;;;14.35;7.53;;;22.50;54.20;;;;;;5092340;28;20044;-55
2021/04/11 05:47:08;;;;;;;12.15;6.82;;;22.50;54.20;;;;;;5074540;28;20043;-55
2021/04/11 05:49:44;;;;;;;14.20;6.53;;;22.50;54.30;;;;;;5093002;28;20129;-55
2021/04/11 05:52:16;;;;;;;12.90;7.15;;;22.50;54.20;;;;;;5091706;28;20111;-55
2021/04/11 05:54:49;;;;;;;14.90;6.95;;;22.50;54.20;;;;;;5092143;28;20051;-55
2021/04/11 05:57:30;;;;;;;13.45;7.13;;;22.50;54.20;;;;;;5091590;28;20028;-55
2021/04/11 06:00:11;;;;;;;14.98;7.22;;;22.50;54.30;;;;;;5074352;28;20032;-55
2021/04/11 06:02:48;;;;;;;11.60;7.38;;;22.50;54.20;;;;;;5092426;28;20099;-54
2021/04/11 06:05:29;;;;;;;13.68;7.00;;;22.50;54.20;;;;;;5090736;28;20039;-55
2021/04/11 06:08:03;;;;;;;12.50;7.15;;;22.50;54.30;;;;;;5091342;28;20385;-54
2021/04/11 06:10:40;;;;;;;11.45;7.40;;;22.50;54.20;;;;;;5091321;28;20386;-54
2021/04/11 06:13:18;;;;;;;12.13;7.35;;;22.50;54.20;;;;;;5091999;28;20053;-55
2021/04/11 06:15:54;;;;;;;9.20;6.13;;;22.40;54.30;;;;;;5091522;28;20059;-54
2021/04/11 06:18:21;;;;;;;14.32;7.72;;;22.40;54.20;;;;;;5092049;28;20081;-54
2021/04/11 06:20:49;;;;;;;10.70;6.53;;;22.50;54.30;;;;;;5088263;28;20485;-54
2021/04/11 06:23:25;;;;;;;11.07;6.47;;;22.50;54.30;;;;;;5091967;28;20032;-54
2021/04/11 06:26:28;;;;;;;14.40;7.65;;;22.40;54.20;;;;;;5091979;28;20039;-54
2021/04/11 06:29:06;;;;;;;12.60;6.78;;;22.40;54.30;;;;;;5091703;28;20389;-54
2021/04/11 06:31:58;;;;;;;14.18;6.38;;;22.40;54.20;;;;;;5095531;28;20020;-54
2021/04/11 06:34:33;;;;;;;8.80;6.15;;;22.50;54.20;;;;;;5086983;28;20111;-54
2021/04/11 06:37:03;;;;;;;10.27;6.53;;;22.40;54.20;;;;;;5077809;28;20367;-55
2021/04/11 06:39:35;;;;;;;11.05;6.18;;;22.40;54.70;;;;;;5095623;28;20077;-54
2021/04/11 06:42:38;;;;;;;13.50;6.35;;;22.50;54.10;;;;;;5095848;28;20063;-54
2021/04/11 06:45:22;;;;;;;14.52;6.43;;;22.50;54.20;;;;;;5095951;28;20035;-56
2021/04/11 06:48:13;;;;;;;12.18;7.30;;;22.50;54.10;;;;;;5076641;28;20140;-55
2021/04/11 06:50:51;;;;;;;13.10;6.43;;;22.50;54.10;;;;;;5094527;28;20031;-55
2021/04/11 06:53:47;;;;;;;14.88;7.43;;;22.40;54.00;;;;;;5095702;28;20098;-54
2021/04/11 06:56:44;;;;;;;9.98;6.05;;;22.50;54.00;;;;;;5094594;28;20429;-55
2021/04/11 06:59:19;;;;;;;13.45;6.68;;;22.50;54.00;;;;;;5094150;28;20127;-54
2021/04/11 07:01:56;;;;;;;12.38;6.53;;;22.40;53.90;;;;;;5092982;28;20067;-54
2021/04/11 07:04:46;;;;;;;9.23;6.20;;;22.50;54.00;;;;;;5093963;28;20080;-54
2021/04/11 07:07:18;;;;;;;14.88;6.20;;;22.50;54.00;;;;;;5076695;28;20021;-54
2021/04/11 07:09:59;;;;;;;11.50;6.70;;;22.50;53.90;;;;;;5076888;28;20028;-53
2021/04/11 07:12:49;;;;;;;18.30;7.03;;;22.50;53.80;;;;;;5094688;28;20027;-54
2021/04/11 07:15:33;;;;;;;9.57;5.38;;;22.50;53.80;;;;;;5075438;28;20111;-53
2021/04/11 07:18:27;;;;;;;13.80;5.53;;;22.50;53.80;;;;;;5076436;28;20027;-54
2021/04/11 07:21:26;;;;;;;14.75;6.47;;;22.50;53.70;;;;;;5094410;28;20035;-54
2021/04/11 07:24:19;;;;;;;9.38;5.82;;;22.50;53.70;;;;;;5094814;28;20028;-54
2021/04/11 07:26:51;;;;;;;10.40;6.13;;;22.60;53.50;;;;;;5095324;28;20047;-54
2021/04/11 07:29:27;;;;;;;12.13;7.00;;;22.60;53.40;;;;;;5089948;28;20123;-54
2021/04/11 07:32:30;;;;;;;14.38;7.18;;;22.60;53.30;;;;;;5094731;28;20548;-54
2021/04/11 07:35:09;;;;;;;12.07;5.95;;;22.60;53.30;;;;;;5094427;28;20028;-54
2021/04/11 07:37:53;;;;;;;14.63;6.22;;;22.60;53.10;;;;;;5094644;28;20112;-54
2021/04/11 07:40:37;;;;;;;11.60;5.95;;;22.60;53.00;;;;;;5102564;28;20031;-54
2021/04/11 07:43:25;;;;;;;11.88;5.70;;;22.60;53.10;;;;;;5093941;28;20116;-54
2021/04/11 07:46:10;;;;;;;12.07;6.43;;;22.60;53.10;;;;;;5094681;28;20035;-54
2021/04/11 07:48:59;;;;;;;9.40;4.95;;;22.60;53.00;;;;;;5094595;28;20028;-50
2021/04/11 07:51:48;;;;;;;11.55;5.18;;;22.60;53.00;;;;;;5094617;28;20063;-50
2021/04/11 07:55:05;;;;;;;12.60;6.00;;;22.70;53.00;;;;;;5094787;28;20023;-50
2021/04/11 07:57:39;;;;;;;10.70;5.13;;;22.70;53.10;;;;;;5012441;28;20038;-50
2021/04/11 08:00:34;;;;;;;12.38;5.80;;;22.70;53.00;;;;;;5012469;28;20077;-50
2021/04/11 08:03:19;;;;;;;15.20;5.90;;;22.70;53.00;;;;;;4953838;28;20047;-50
2021/04/11 08:06:14;;;;;;;10.05;6.18;;;22.80;52.90;;;;;;4938228;29;20067;-51
2021/04/11 08:09:07;;;;;;;12.52;7.13;;;22.70;52.80;;;;;;4953080;28;20122;-50
2021/04/11 08:12:06;;;;;;;13.50;7.05;;;22.80;52.90;;;;;;4954294;29;20035;-50
2021/04/11 08:14:50;;;;;;;13.88;7.80;;;22.80;52.80;;;;;;4953873;29;20130;-50
2021/04/11 08:17:22;;;;;;;13.35;7.03;;;22.80;52.70;;;;;;4957149;28;20061;-50
2021/04/11 08:20:12;;;;;;;14.10;6.85;;;22.90;52.70;;;;;;4973342;28;20051;-50
2021/04/11 08:22:49;;;;;;;12.38;6.93;;;22.90;52.60;;;;;;4957631;28;20071;-50
2021/04/11 08:25:34;;;;;;;10.27;6.38;;;22.90;52.70;;;;;;4950861;28;20455;-50
2021/04/11 08:28:37;;;;;;;21.33;16.25;;;22.90;52.60;;;;;;4953338;29;20051;-50
2021/04/11 08:31:29;;;;;;;37.35;33.35;;;22.90;52.60;;;;;;4934085;29;20385;-49
2021/04/11 08:34:08;;;;;;;40.00;35.75;;;23.00;52.60;;;;;;4968071;28;20038;-50
2021/04/11 08:36:48;;;;;;;42.17;32.80;;;23.00;52.40;;;;;;4995135;28;20510;-50
2021/04/11 08:39:34;;;;;;;32.30;27.98;;;23.00;52.30;;;;;;5025158;28;20040;-52
2021/04/11 08:42:15;;;;;;;28.98;25.88;;;23.10;52.30;;;;;;5092726;28;20081;-51
2021/04/11 08:44:53;;;;;;;30.42;24.45;;;23.10;52.30;;;;;;5073405;28;20037;-51
2021/04/11 08:47:41;;;;;;;28.77;21.10;;;23.10;52.10;;;;;;5079025;28;20027;-51
2021/04/11 08:50:19;;;;;;;24.98;21.55;;;23.20;52.20;;;;;;5093246;28;20032;-53
2021/04/11 08:53:00;;;;;;;29.30;21.42;;;23.20;52.00;;;;;;5092835;28;20028;-50
2021/04/11 08:55:42;;;;;;;20.85;16.67;;;23.20;52.00;;;;;;5093246;28;20024;-50
2021/04/11 08:58:26;;;;;;;17.75;14.77;;;23.20;51.80;;;;;;5092496;28;20024;-50
2021/04/11 09:01:08;;;;;;;18.60;14.40;;;23.30;51.90;;;;;;5093074;28;20115;-50
2021/04/11 09:03:48;;;;;;;18.83;11.48;;;23.30;51.80;;;;;;5090216;28;20039;-51
2021/04/11 09:06:29;;;;;;;16.17;9.80;;;23.30;51.70;;;;;;5092924;28;20118;-51
2021/04/11 09:09:16;;;;;;;11.23;8.20;;;23.40;51.70;;;;;;5093075;28;20028;-54
2021/04/11 09:12:00;;;;;;;318.45;285.70;;;23.40;51.70;;;;;;5091785;28;20378;-54
2021/04/11 09:14:51;;;;;;;22.08;16.58;;;23.40;51.70;;;;;;5074573;28;20024;-54
2021/04/11 09:17:48;;;;;;;11.82;6.55;;;23.40;51.20;;;;;;5092215;28;20024;-55
2021/04/11 09:20:53;;;;;;;13.27;5.03;;;23.40;51.40;;;;;;5092254;28;20028;-54
2021/04/11 09:23:41;;;;;;;13.07;5.55;;;23.40;51.50;;;;;;5072130;28;20059;-54
2021/04/11 09:26:32;;;;;;;9.70;4.20;;;23.40;51.40;;;;;;5077240;28;20469;-54
2021/04/11 09:29:29;;;;;;;6.68;3.58;;;23.30;51.40;;;;;;5089771;28;20127;-54
2021/04/11 09:32:02;;;;;;;7.05;3.13;;;23.20;52.00;;;;;;5081204;28;20043;-54
2021/04/11 09:34:56;;;;;;;11.07;4.07;;;23.20;52.40;;;;;;5090112;28;20052;-54
2021/04/11 09:37:53;;;;;;;11.13;4.32;;;23.20;52.70;;;;;;5089118;28;20136;-55
2021/04/11 09:40:45;;;;;;;11.07;3.97;;;23.10;53.00;;;;;;5091976;28;20366;-55
2021/04/11 09:43:19;;;;;;;14.60;4.15;;;23.10;53.40;;;;;;5091280;28;20059;-55
2021/04/11 09:45:50;;;;;;;9.00;3.58;;;23.00;53.70;;;;;;5076240;28;20033;-54
2021/04/11 09:48:47;;;;;;;11.35;3.28;;;23.10;54.20;;;;;;5071787;28;20040;-54
2021/04/11 09:51:16;;;;;;;8.68;4.10;;;23.10;54.40;;;;;;5071781;28;20035;-52
2021/04/11 09:54:24;;;;;;;10.77;3.30;;;23.10;54.50;;;;;;5087256;28;20111;-51
2021/04/11 09:57:00;;;;;;;7.30;3.15;;;23.20;54.80;;;;;;5088648;28;20025;-51
2021/04/11 09:59:48;;;;;;;8.73;3.15;;;23.30;55.10;;;;;;5089204;28;20504;-51
2021/04/11 10:02:35;;;;;;;10.25;3.30;;;23.30;55.00;;;;;;5088196;28;20039;-54
2021/04/11 10:05:27;;;;;;;8.52;2.83;;;23.30;55.20;;;;;;5090556;28;20040;-53
2021/04/11 10:07:59;;;;;;;9.90;2.88;;;23.30;55.00;;;;;;5062745;28;20127;-54
2021/04/11 10:11:06;;;;;;;7.90;3.17;;;23.40;54.70;;;;;;5089739;28;20020;-51
2021/04/11 10:14:00;;;;;;;7.03;2.88;;;23.40;54.90;;;;;;4981893;28;20551;-51
2021/04/11 10:16:53;;;;;;;8.18;3.22;;;23.50;55.00;;;;;;5085234;28;20496;-54
2021/04/11 10:19:39;;;;;;;7.65;3.13;;;23.50;54.70;;;;;;5091185;28;20046;-54
2021/04/11 10:22:29;;;;;;;16.13;5.20;;;23.60;54.60;;;;;;5043616;28;20047;-54
2021/04/11 10:25:08;;;;;;;8.20;4.57;;;23.70;54.50;;;;;;5062136;28;20036;-54
2021/04/11 10:27:42;;;;;;;8.85;2.70;;;23.70;54.60;;;;;;5084196;28;20048;-53
2021/04/11 10:30:11;;;;;;;7.43;2.13;;;23.70;53.80;;;;;;5088253;28;20036;-54
2021/04/11 10:32:48;;;;;;;7.68;2.30;;;23.70;53.20;;;;;;5090681;28;20024;-54
2021/04/11 10:35:42;;;;;;;82.13;70.57;;;23.80;53.10;;;;;;5091090;28;20095;-54
2021/04/11 10:38:41;;;;;;;63.88;55.03;;;23.80;52.30;;;;;;5090106;28;20032;-55
2021/04/11 10:41:35;;;;;;;13.88;10.77;;;23.90;52.60;;;;;;5091139;28;20035;-55
2021/04/11 10:44:30;;;;;;;21.17;5.50;;;24.00;52.40;;;;;;5090039;28;20319;-55
2021/04/11 10:47:18;;;;;;;7.78;3.40;;;24.10;52.00;;;;;;5087944;28;20036;-50
2021/04/11 10:50:05;;;;;;;5.18;2.63;;;24.20;51.90;;;;;;5090418;28;20024;-50
2021/04/11 10:52:37;;;;;;;8.20;3.22;;;24.30;52.20;;;;;;5088128;28;20031;-54
2021/04/11 10:55:09;;;;;;;10.00;4.38;;;24.40;52.00;;;;;;5090397;28;20153;-55
2021/04/11 10:58:09;;;;;;;6.50;3.38;;;24.50;51.90;;;;;;5090069;28;20240;-54
2021/04/11 11:00:54;;;;;;;8.30;2.90;;;24.50;51.80;;;;;;5091110;28;20428;-55
2021/04/11 11:03:25;;;;;;;6.68;2.63;;;24.60;51.70;;;;;;5089618;28;20217;-54
2021/04/11 11:06:13;;;;;;;29.45;24.10;;;24.70;51.50;;;;;;5072870;28;20032;-54
2021/04/11 11:09:15;;;;;;;25.67;23.00;;;24.80;51.40;;;;;;5090741;28;20085;-55
2021/04/11 11:12:00;;;;;;;9.48;5.53;;;24.90;51.70;;;;;;5089920;28;20029;-55
2021/04/11 11:14:39;;;;;;;7.05;3.03;;;24.90;51.50;;;;;;5072160;28;20115;-54
2021/04/11 11:17:24;;;;;;;10.60;3.80;;;24.90;51.80;;;;;;5093886;28;20027;-54
2021/04/11 11:20:16;;;;;;;9.55;3.75;;;25.00;51.70;;;;;;5094792;28;20031;-54
2021/04/11 11:22:53;;;;;;;9.45;3.35;;;25.10;52.30;;;;;;5094778;28;20070;-54
2021/04/11 11:25:19;;;;;;;7.25;3.13;;;25.10;51.60;;;;;;5076271;28;20500;-55
2021/04/11 11:28:33;;;;;;;6.65;3.15;;;25.10;51.60;;;;;;5075496;28;20040;-54
2021/04/11 11:31:38;;;;;;;12.05;3.08;;;25.10;51.70;;;;;;5094239;28;20439;-53
2021/04/11 11:34:18;;;;;;;9.63;3.53;;;25.30;51.90;;;;;;5074778;28;20044;-54
2021/04/11 11:37:00;;;;;;;15.25;3.97;;;25.30;51.60;;;;;;5086731;28;20028;-54
2021/04/11 11:39:36;;;;;;;14.57;3.80;;;25.40;51.60;;;;;;5094487;28;20138;-53
2021/04/11 11:42:21;;;;;;;16.25;3.28;;;25.40;51.60;;;;;;5094903;28;20066;-51
2021/04/11 11:45:25;;;;;;;12.60;3.58;;;25.50;51.50;;;;;;5073486;28;20118;-50
2021/04/11 11:47:54;;;;;;;13.00;3.90;;;25.50;51.50;;;;;;5049146;28;20112;-51
2021/04/11 11:50:30;;;;;;;11.05;3.80;;;25.50;51.40;;;;;;5094810;28;20032;-51
2021/04/11 11:53:02;;;;;;;10.52;4.05;;;25.50;51.40;;;;;;5076903;28;20028;-50
2021/04/11 11:55:35;;;;;;;15.90;3.97;;;25.50;51.50;;;;;;5094841;28;20028;-50
2021/04/11 11:58:17;;;;;;;17.77;4.10;;;25.50;51.40;;;;;;5094963;28;20170;-51
2021/04/11 12:01:00;;;;;;;8.85;3.50;;;25.50;51.50;;;;;;5076612;28;20036;-51
2021/04/11 12:03:34;;;;;;;10.10;3.83;;;25.50;51.50;;;;;;5094732;28;20484;-51
2021/04/11 12:06:21;;;;;;;9.70;3.28;;;25.50;51.40;;;;;;5094120;28;20427;-51
2021/04/11 12:09:08;;;;;;;11.13;4.22;;;25.50;51.40;;;;;;5094432;28;20032;-51
2021/04/11 12:11:41;;;;;;;8.43;3.10;;;25.40;51.40;;;;;;5093502;28;20039;-51
2021/04/11 12:14:25;;;;;;;10.70;3.47;;;25.50;51.50;;;;;;5093575;28;20024;-51
2021/04/11 12:17:33;;;;;;;12.45;4.03;;;25.40;51.50;;;;;;5085103;28;20790;-54
2021/04/11 12:20:22;;;;;;;8.43;3.60;;;25.40;51.60;;;;;;5082044;28;20136;-53
2021/04/11 12:22:57;;;;;;;12.73;4.30;;;25.40;51.50;;;;;;5076133;28;20704;-54
2021/04/11 12:25:28;;;;;;;9.23;4.00;;;25.40;51.60;;;;;;5077560;28;20028;-54
2021/04/11 12:27:55;;;;;;;8.35;3.55;;;25.40;52.20;;;;;;5072550;28;20037;-54
2021/04/11 12:30:29;;;;;;;6.93;3.78;;;25.40;51.60;;;;;;5075169;28;20378;-54
2021/04/11 12:32:58;;;;;;;10.10;4.00;;;25.40;51.60;;;;;;5093829;28;20103;-54
2021/04/11 12:35:38;;;;;;;8.07;3.22;;;25.30;51.70;;;;;;5075068;28;20027;-53
2021/04/11 12:38:58;;;;;;;9.05;3.70;;;25.30;51.70;;;;;;5093973;28;20047;-51
2021/04/11 12:41:44;;;;;;;10.77;3.58;;;25.30;51.70;;;;;;5031355;28;20592;-51
2021/04/11 12:44:26;;;;;;;10.52;3.38;;;25.30;51.60;;;;;;5031045;28;20068;-51
2021/04/11 12:46:59;;;;;;;7.53;3.28;;;25.40;51.60;;;;;;5031357;28;20098;-51
2021/04/11 12:49:49;;;;;;;8.50;2.85;;;25.40;51.60;;;;;;5031311;28;20857;-51
2021/04/11 12:52:29;;;;;;;7.30;2.75;;;25.40;51.60;;;;;;5031825;28;20029;-51
2021/04/11 12:55:10;;;;;;;11.63;3.03;;;25.40;51.60;;;;;;5014726;28;20030;-50
2021/04/11 12:57:43;;;;;;;7.28;2.35;;;25.40;51.50;;;;;;5014720;28;20435;-50
2021/04/11 13:00:20;;;;;;;7.90;3.13;;;25.50;51.50;;;;;;5030522;28;20053;-52
2021/04/11 13:02:56;;;;;;;9.27;3.25;;;25.50;51.40;;;;;;5030443;28;20116;-50
2021/04/11 13:05:37;;;;;;;6.00;3.45;;;25.50;51.50;;;;;;5032662;28;20033;-51
2021/04/11 13:08:18;;;;;;;9.80;3.00;;;25.50;51.60;;;;;;5031800;28;20037;-54
2021/04/11 13:11:04;;;;;;;;;;;25.50;51.70;;;;;;5022190;28;20037;-54
2021/04/11 13:13:37;;;;;;;9.75;3.20;;;25.50;51.90;;;;;;5031003;28;20363;-54
2021/04/11 13:16:27;;;;;;;9.00;2.88;;;25.60;51.70;;;;;;5099010;28;20473;-53
2021/04/11 13:19:06;;;;;;;6.45;2.50;;;25.60;51.70;;;;;;5095514;28;20032;-54
2021/04/11 13:21:37;;;;;;;5.00;2.38;;;25.60;51.70;;;;;;5113436;28;20027;-54
2021/04/11 13:24:19;;;;;;;14.25;3.35;;;25.70;51.80;;;;;;5113456;28;20038;-54
2021/04/11 13:26:58;;;;;;;9.15;2.88;;;25.70;51.70;;;;;;5110882;28;20164;-55
2021/04/11 13:30:01;;;;;;;7.05;2.80;;;25.70;51.60;;;;;;5113147;28;20063;-53
2021/04/11 13:32:39;;;;;;;5.93;2.30;;;25.80;51.70;;;;;;5096046;28;20036;-54
2021/04/11 13:35:31;;;;;;;5.65;3.00;;;25.80;51.50;;;;;;5084370;28;20028;-54
2021/04/11 13:38:28;;;;;;;7.68;3.13;;;25.90;51.50;;;;;;5092592;28;20027;-54
2021/04/11 13:41:36;;;;;;;12.43;3.67;;;25.90;51.40;;;;;;5088927;28;20097;-54
2021/04/11 13:44:30;;;;;;;9.15;3.20;;;25.90;51.40;;;;;;5074265;28;20032;-54
2021/04/11 13:47:28;;;;;;;9.80;3.63;;;26.00;51.20;;;;;;5092420;28;20362;-54
2021/04/11 13:50:03;;;;;;;6.82;2.97;;;26.00;51.10;;;;;;5092168;28;20028;-54